ADDS METAR Data

Data at: 2307 UTC 15 Aug 2018

METAR for:KSDL (Scottsdale Muni, AZ, US)
Text:KSDL 152253Z VRB03KT 10SM CLR 34/15 A2987 RMK AO2 SLP085 T03440150
Temperature: 34.4°C ( 94°F)
Dewpoint: 15.0°C ( 59°F) [RH = 31%]
Pressure (altimeter):29.87 inches Hg (1011.6 mb) [Sea level pressure: 1008.5 mb]
Winds:variable direction winds at 3 MPH (3 knots; 1.5 m/s)
Visibility:10 or more sm (16+ km)
Ceiling:at least 12,000 feet AGL
Clouds:sky clear below 12,000 feet AGL